createdAt,value
2023-01-27T00:01:09.081Z,-1.50
2023-01-27T00:03:36.182Z,-1.50
2023-01-27T00:06:06.634Z,-1.50
2023-01-27T00:08:33.765Z,-1.50
2023-01-27T00:11:20.673Z,-1.40
2023-01-27T00:13:47.652Z,-1.40
2023-01-27T00:16:14.793Z,-1.40
2023-01-27T00:18:41.927Z,-1.30
2023-01-27T00:21:27.295Z,-1.30
2023-01-27T00:24:12.837Z,-1.30
2023-01-27T00:26:39.921Z,-1.30
2023-01-27T00:29:06.942Z,-1.30
2023-01-27T00:31:52.348Z,-1.30
2023-01-27T00:34:19.419Z,-1.20
2023-01-27T00:36:46.442Z,-1.20
2023-01-27T00:39:13.547Z,-1.20
2023-01-27T00:41:41.234Z,-1.20
2023-01-27T00:44:13.291Z,-1.20
2023-01-27T00:46:41.345Z,-1.20
2023-01-27T00:49:09.273Z,-1.20
2023-01-27T00:51:37.029Z,-1.20
2023-01-27T00:54:05.231Z,-1.20
2023-01-27T00:56:32.724Z,-1.20
2023-01-27T00:58:59.882Z,-1.20
2023-01-27T01:01:27.790Z,-1.30
2023-01-27T01:03:54.974Z,-1.30
2023-01-27T01:06:22.169Z,-1.40
2023-01-27T01:08:49.144Z,-1.40
2023-01-27T01:11:18.269Z,-1.40
2023-01-27T01:13:46.603Z,-1.50
2023-01-27T01:16:16.837Z,-1.50
2023-01-27T01:18:44.256Z,-1.50
2023-01-27T01:21:12.246Z,-1.50
2023-01-27T01:23:44.284Z,-1.50
2023-01-27T01:26:13.212Z,-1.50
2023-01-27T01:28:40.421Z,-1.50
2023-01-27T01:31:09.869Z,-1.60
2023-01-27T01:33:37.357Z,-1.60
2023-01-27T01:36:09.801Z,-1.60
2023-01-27T01:38:36.917Z,-1.60
2023-01-27T01:41:04.932Z,-1.60
2023-01-27T01:43:31.885Z,-1.50
2023-01-27T01:46:00.514Z,-1.50
2023-01-27T01:48:37.756Z,-1.50
2023-01-27T01:51:11.028Z,-1.50
2023-01-27T01:54:00.373Z,-1.50
2023-01-27T01:56:35.086Z,-1.50
2023-01-27T01:59:07.569Z,-1.50
2023-01-27T02:01:34.649Z,-1.50
2023-01-27T02:04:08.251Z,-1.50
2023-01-27T02:06:49.889Z,-1.50
2023-01-27T02:09:18.210Z,-1.50
2023-01-27T02:11:45.417Z,-1.50
2023-01-27T02:14:14.878Z,-1.50
2023-01-27T02:16:42.175Z,-1.50
2023-01-27T02:19:14.859Z,-1.50
2023-01-27T02:21:41.861Z,-1.50
2023-01-27T02:24:12.588Z,-1.60
2023-01-27T02:26:44.402Z,-1.60
2023-01-27T02:29:14.183Z,-1.60
2023-01-27T02:31:41.773Z,-1.60
2023-01-27T02:34:18.898Z,-1.60
2023-01-27T02:36:50.169Z,-1.60
2023-01-27T02:39:20.627Z,-1.60
2023-01-27T02:41:51.892Z,-1.60
2023-01-27T02:44:18.838Z,-1.60
2023-01-27T02:46:45.912Z,-1.60
2023-01-27T02:49:13.139Z,-1.60
2023-01-27T02:51:40.175Z,-1.60
2023-01-27T02:54:07.780Z,-1.60
2023-01-27T02:56:34.781Z,-1.60
2023-01-27T02:59:01.694Z,-1.60
2023-01-27T03:01:28.840Z,-1.60
2023-01-27T03:03:55.898Z,-1.60
2023-01-27T03:06:22.980Z,-1.60
2023-01-27T03:08:50.011Z,-1.70
2023-01-27T03:11:40.004Z,-1.70
2023-01-27T03:14:08.341Z,-1.80
2023-01-27T03:16:54.314Z,-1.70
2023-01-27T03:19:21.374Z,-1.80
2023-01-27T03:21:51.363Z,-1.80
2023-01-27T03:24:19.104Z,-1.70
2023-01-27T03:26:46.510Z,-1.70
2023-01-27T03:29:32.148Z,-1.70
2023-01-27T03:31:59.234Z,-1.70
2023-01-27T03:34:26.243Z,-1.60
2023-01-27T03:37:11.953Z,-1.60
2023-01-27T03:39:57.694Z,-1.70
2023-01-27T03:42:43.401Z,-1.60
2023-01-27T03:45:29.059Z,-1.60
2023-01-27T03:47:56.011Z,-1.70
2023-01-27T03:50:37.868Z,-1.70
2023-01-27T03:53:05.943Z,-1.70
2023-01-27T03:55:34.612Z,-1.70
2023-01-27T03:58:20.367Z,-1.60
2023-01-27T04:00:56.015Z,-1.60
2023-01-27T04:03:43.757Z,-1.70
2023-01-27T04:06:32.206Z,-1.70
2023-01-27T04:08:59.554Z,-1.70
2023-01-27T04:11:45.378Z,-1.80
2023-01-27T04:14:13.419Z,-1.80
2023-01-27T04:16:40.417Z,-1.80
2023-01-27T04:19:09.518Z,-1.70
2023-01-27T04:21:37.770Z,-1.70
2023-01-27T04:24:08.870Z,-1.70
2023-01-27T04:26:46.713Z,-1.70
2023-01-27T04:29:13.917Z,-1.70
2023-01-27T04:31:49.246Z,-1.80
2023-01-27T04:34:17.293Z,-1.70
2023-01-27T04:36:45.819Z,-1.70
2023-01-27T04:39:15.091Z,-1.70
2023-01-27T04:41:42.696Z,-1.80
2023-01-27T04:44:18.917Z,-1.80
2023-01-27T04:46:46.438Z,-1.70
2023-01-27T04:49:13.532Z,-1.70
2023-01-27T04:52:00.652Z,-1.70
2023-01-27T04:54:27.732Z,-1.70
2023-01-27T04:56:59.341Z,-1.60
2023-01-27T04:59:34.343Z,-1.60
2023-01-27T05:02:01.683Z,-1.60
2023-01-27T05:04:28.894Z,-1.60
2023-01-27T05:07:11.907Z,-1.60
2023-01-27T05:09:42.900Z,-1.60
2023-01-27T05:12:10.362Z,-1.60
2023-01-27T05:14:37.382Z,-1.60
2023-01-27T05:17:04.499Z,-1.60
2023-01-27T05:19:32.640Z,-1.60
2023-01-27T05:21:59.956Z,-1.50
2023-01-27T05:24:27.188Z,-1.50
2023-01-27T05:27:03.588Z,-1.50
2023-01-27T05:29:31.096Z,-1.50
2023-01-27T05:31:58.231Z,-1.50
2023-01-27T05:35:33.964Z,-1.50
2023-01-27T05:38:52.980Z,-1.50
2023-01-27T05:41:20.937Z,-1.60
2023-01-27T05:43:52.961Z,-1.60
2023-01-27T05:46:32.293Z,-1.60
2023-01-27T05:49:01.389Z,-1.50
2023-01-27T05:51:31.678Z,-1.60
2023-01-27T05:54:00.265Z,-1.50
2023-01-27T05:56:27.653Z,-1.50
2023-01-27T05:58:57.395Z,-1.50
2023-01-27T06:01:27.349Z,-1.60
2023-01-27T06:03:54.464Z,-1.60
2023-01-27T06:06:24.053Z,-1.60
2023-01-27T06:08:51.617Z,-1.60
2023-01-27T06:11:20.112Z,-1.60
2023-01-27T06:13:59.426Z,-1.60
2023-01-27T06:16:26.407Z,-1.60
2023-01-27T06:18:53.434Z,-1.60
2023-01-27T06:21:23.023Z,-1.60
2023-01-27T06:23:55.683Z,-1.60
2023-01-27T06:26:23.873Z,-1.60
2023-01-27T06:28:52.376Z,-1.60
2023-01-27T06:31:22.328Z,-1.70
2023-01-27T06:33:50.571Z,-1.60
2023-01-27T06:36:20.536Z,-1.70
2023-01-27T06:38:52.736Z,-1.60
2023-01-27T06:41:19.802Z,-1.60
2023-01-27T06:43:46.780Z,-1.60
2023-01-27T06:46:15.124Z,-1.60
2023-01-27T06:48:42.238Z,-1.60
2023-01-27T06:51:37.304Z,-1.60
2023-01-27T06:58:02.927Z,-1.60
2023-01-27T07:00:38.995Z,-1.60
2023-01-27T07:06:38.779Z,-1.60
2023-01-27T07:09:33.622Z,-1.60
2023-01-27T07:12:20.493Z,-1.50
2023-01-27T07:14:51.836Z,-1.40
2023-01-27T07:17:24.804Z,-1.50
2023-01-27T07:19:59.057Z,-1.50
2023-01-27T07:22:29.415Z,-1.50
2023-01-27T07:25:04.780Z,-1.40
2023-01-27T07:27:39.934Z,-1.40
2023-01-27T07:30:12.448Z,-1.50
2023-01-27T07:32:50.592Z,-1.50
2023-01-27T07:35:24.868Z,-1.50
2023-01-27T07:37:57.866Z,-1.50
2023-01-27T07:40:35.708Z,-1.50
2023-01-27T07:43:04.635Z,-1.40
2023-01-27T07:45:33.491Z,-1.50
2023-01-27T07:48:09.249Z,-1.40
2023-01-27T07:50:40.817Z,-1.50
2023-01-27T07:53:09.894Z,-1.40
2023-01-27T07:55:38.158Z,-1.40
2023-01-27T07:58:09.320Z,-1.40
2023-01-27T08:00:39.760Z,-1.40
2023-01-27T08:03:08.414Z,-1.40
2023-01-27T08:05:39.049Z,-1.40
2023-01-27T08:08:07.704Z,-1.40
2023-01-27T08:10:35.567Z,-1.40
2023-01-27T08:13:08.084Z,-1.40
2023-01-27T08:15:42.758Z,-1.40
2023-01-27T08:18:11.421Z,-1.40
2023-01-27T08:20:40.115Z,-1.40
2023-01-27T08:23:07.463Z,-1.40
2023-01-27T08:25:34.914Z,-1.30
2023-01-27T08:28:03.500Z,-1.30
2023-01-27T08:30:35.794Z,-1.20
2023-01-27T08:33:07.535Z,-1.20
2023-01-27T08:35:45.982Z,-1.20
2023-01-27T08:38:18.853Z,-1.10
2023-01-27T08:40:51.895Z,-1.10
2023-01-27T08:43:22.624Z,-1.10
2023-01-27T08:45:57.448Z,-1.10
2023-01-27T08:51:23.418Z,-1.10
2023-01-27T08:53:51.836Z,-1.00
2023-01-27T08:56:23.476Z,-1.00
2023-01-27T08:58:53.392Z,-1.00
2023-01-27T09:01:22.984Z,-1.00
2023-01-27T09:03:52.818Z,-1.10
2023-01-27T09:06:22.583Z,-1.10
2023-01-27T09:09:12.569Z,-1.10
2023-01-27T09:11:46.747Z,-1.00
2023-01-27T09:14:30.462Z,-1.00
2023-01-27T09:16:58.349Z,-1.10
2023-01-27T09:19:32.368Z,-1.00
2023-01-27T09:21:59.925Z,-1.00
2023-01-27T09:24:31.927Z,-0.90
2023-01-27T09:27:05.726Z,-0.90
2023-01-27T09:29:44.181Z,-1.00
2023-01-27T09:32:16.713Z,-1.00
2023-01-27T09:34:55.564Z,-1.00
2023-01-27T09:37:27.917Z,-1.00
2023-01-27T09:40:12.793Z,-0.90
2023-01-27T09:43:06.959Z,-0.90
2023-01-27T09:45:51.078Z,-0.80
2023-01-27T09:48:52.086Z,-0.80
2023-01-27T09:54:22.023Z,-0.90
2023-01-27T09:57:01.939Z,-0.80
2023-01-27T10:00:12.824Z,-0.80
2023-01-27T10:06:33.238Z,-0.80
2023-01-27T10:09:41.077Z,-0.70
2023-01-27T10:12:54.083Z,-0.80
2023-01-27T10:16:05.640Z,-0.80
2023-01-27T10:29:21.819Z,-0.50
2023-01-27T11:08:45.946Z,-0.30
2023-01-27T11:16:04.191Z,-0.10
2023-01-27T11:30:19.697Z,0.10
2023-01-27T11:33:14.791Z,0.10
2023-01-27T11:35:46.701Z,0.10
2023-01-27T11:38:19.791Z,0.20
2023-01-27T11:40:51.201Z,0.20
2023-01-27T11:43:24.391Z,0.20
2023-01-27T11:45:58.074Z,0.20
2023-01-27T11:48:28.214Z,0.20
2023-01-27T11:50:56.296Z,0.20
2023-01-27T11:53:31.978Z,0.20
2023-01-27T11:56:08.301Z,0.20
2023-01-27T11:58:46.274Z,0.10
2023-01-27T12:01:19.623Z,0.00
2023-01-27T12:04:07.937Z,0.00
2023-01-27T12:06:44.169Z,0.00
2023-01-27T12:15:22.143Z,0.20
2023-01-27T12:21:10.829Z,0.20
2023-01-27T12:23:47.812Z,0.10
2023-01-27T12:26:15.461Z,0.10
2023-01-27T12:28:52.807Z,0.10
2023-01-27T12:31:30.937Z,0.10
2023-01-27T12:34:08.821Z,0.10
2023-01-27T12:36:44.180Z,0.20
2023-01-27T12:39:30.252Z,0.20
2023-01-27T12:41:59.011Z,0.20
2023-01-27T12:44:29.206Z,0.10
2023-01-27T12:47:17.071Z,0.00
2023-01-27T12:49:45.092Z,0.10
2023-01-27T12:52:34.038Z,0.10
2023-01-27T12:55:03.257Z,0.20
2023-01-27T12:57:33.497Z,0.20
2023-01-27T13:00:01.663Z,0.30
2023-01-27T13:02:33.323Z,0.30
2023-01-27T13:05:05.951Z,0.30
2023-01-27T13:07:44.496Z,0.30
2023-01-27T13:10:23.190Z,0.30
2023-01-27T13:12:57.879Z,0.20
2023-01-27T13:15:28.893Z,0.20
2023-01-27T13:17:57.827Z,0.20
2023-01-27T13:20:49.353Z,0.20
2023-01-27T13:23:39.174Z,0.20
2023-01-27T13:26:09.425Z,0.10
2023-01-27T13:29:01.507Z,0.10
2023-01-27T13:31:37.512Z,0.10
2023-01-27T13:34:19.172Z,0.00
2023-01-27T13:37:04.543Z,-0.10
2023-01-27T13:39:50.601Z,-0.10
2023-01-27T13:42:54.448Z,0.00
2023-01-27T13:45:33.358Z,-0.10
2023-01-27T13:48:04.192Z,0.00
2023-01-27T13:50:57.872Z,0.00
2023-01-27T13:53:25.325Z,0.10
2023-01-27T13:56:11.334Z,0.00
2023-01-27T13:59:00.415Z,0.10
2023-01-27T14:01:36.616Z,0.00
2023-01-27T14:04:23.839Z,0.00
2023-01-27T14:07:26.541Z,0.00
2023-01-27T14:10:07.264Z,0.00
2023-01-27T14:12:52.215Z,0.00
2023-01-27T14:15:44.827Z,0.00
2023-01-27T14:18:25.220Z,-0.10
2023-01-27T14:21:02.342Z,-0.10
2023-01-27T14:23:53.386Z,-0.20
2023-01-27T15:10:11.379Z,-0.30
2023-01-27T15:13:18.252Z,-0.30
2023-01-27T15:22:28.676Z,-0.20
2023-01-27T15:25:39.649Z,-0.20
2023-01-27T15:28:27.506Z,-0.20
2023-01-27T15:31:25.425Z,-0.30
2023-01-27T15:34:37.519Z,-0.40
2023-01-27T15:37:32.557Z,-0.30
2023-01-27T15:40:19.868Z,-0.30
2023-01-27T15:43:03.448Z,-0.40
2023-01-27T15:45:39.894Z,-0.40
2023-01-27T15:48:26.242Z,-0.50
2023-01-27T15:51:09.103Z,-0.40
2023-01-27T16:10:44.256Z,-0.50
2023-01-27T16:13:32.798Z,-0.50
2023-01-27T16:16:29.283Z,-0.50
2023-01-27T16:19:01.341Z,-0.50
2023-01-27T16:21:38.824Z,-0.50
2023-01-27T16:24:37.035Z,-0.50
2023-01-27T16:27:20.532Z,-0.50
2023-01-27T16:30:32.813Z,-0.50
2023-01-27T16:33:21.081Z,-0.50
2023-01-27T16:36:16.642Z,-0.50
2023-01-27T16:38:45.760Z,-0.50
2023-01-27T16:41:41.411Z,-0.50
2023-01-27T16:44:28.596Z,-0.50
2023-01-27T16:47:05.065Z,-0.50
2023-01-27T16:49:44.031Z,-0.50
2023-01-27T16:52:40.745Z,-0.50
2023-01-27T16:55:22.078Z,-0.50
2023-01-27T16:57:55.907Z,-0.50
2023-01-27T17:00:35.345Z,-0.50
2023-01-27T17:03:23.692Z,-0.50
2023-01-27T17:05:52.992Z,-0.50
2023-01-27T17:08:25.638Z,-0.40
2023-01-27T17:11:09.007Z,-0.40
2023-01-27T17:14:01.418Z,-0.50
2023-01-27T17:16:44.446Z,-0.40
2023-01-27T17:19:18.047Z,-0.40
2023-01-27T17:21:54.332Z,-0.40
2023-01-27T17:24:35.361Z,-0.50
2023-01-27T17:27:08.081Z,-0.50
2023-01-27T17:29:47.199Z,-0.40
2023-01-27T17:32:34.847Z,-0.50
2023-01-27T17:35:05.977Z,-0.40
2023-01-27T17:37:43.288Z,-0.40
2023-01-27T17:40:24.479Z,-0.40
2023-01-27T17:42:51.470Z,-0.40
2023-01-27T17:45:30.339Z,-0.40
2023-01-27T17:48:01.448Z,-0.40
2023-01-27T17:50:37.398Z,-0.40
2023-01-27T17:53:10.712Z,-0.40
2023-01-27T17:55:38.586Z,-0.50
2023-01-27T17:58:10.876Z,-0.40
2023-01-27T18:00:43.967Z,-0.50
2023-01-27T18:03:23.819Z,-0.50
2023-01-27T18:05:56.123Z,-0.50
2023-01-27T18:08:23.749Z,-0.50
2023-01-27T18:10:51.638Z,-0.40
2023-01-27T18:13:18.621Z,-0.40
2023-01-27T18:16:02.123Z,-0.40
2023-01-27T18:18:35.271Z,-0.40
2023-01-27T18:21:08.728Z,-0.40
2023-01-27T18:23:44.706Z,-0.50
2023-01-27T18:26:28.107Z,-0.50
2023-01-27T18:28:59.954Z,-0.50
2023-01-27T18:31:30.480Z,-0.60
2023-01-27T18:33:58.700Z,-0.60
2023-01-27T18:36:33.443Z,-0.60
2023-01-27T18:39:01.365Z,-0.50
2023-01-27T18:41:32.277Z,-0.50
2023-01-27T18:44:02.747Z,-0.50
2023-01-27T18:46:29.818Z,-0.50
2023-01-27T18:49:05.149Z,-0.50
2023-01-27T18:51:32.077Z,-0.50
2023-01-27T18:54:02.626Z,-0.60
2023-01-27T18:56:32.638Z,-0.50
2023-01-27T18:58:59.572Z,-0.60
2023-01-27T19:01:26.548Z,-0.50
2023-01-27T19:03:57.358Z,-0.60
2023-01-27T19:06:26.381Z,-0.60
2023-01-27T19:08:54.810Z,-0.60
2023-01-27T19:11:22.737Z,-0.60
2023-01-27T19:13:49.783Z,-0.60
2023-01-27T19:16:18.261Z,-0.60
2023-01-27T19:18:45.489Z,-0.60
2023-01-27T19:21:16.889Z,-0.60
2023-01-27T19:23:49.639Z,-0.60
2023-01-27T19:26:19.658Z,-0.50
2023-01-27T19:28:52.463Z,-0.60
2023-01-27T19:31:20.008Z,-0.60
2023-01-27T19:33:47.644Z,-0.60
2023-01-27T19:36:25.324Z,-0.60
2023-01-27T19:39:02.286Z,-0.60
2023-01-27T19:41:29.751Z,-0.60
2023-01-27T19:43:57.302Z,-0.60
2023-01-27T19:46:24.499Z,-0.60
2023-01-27T19:48:52.254Z,-0.60
2023-01-27T19:51:20.120Z,-0.60
2023-01-27T19:53:47.416Z,-0.60
2023-01-27T19:56:20.050Z,-0.60
2023-01-27T19:58:52.714Z,-0.60
2023-01-27T20:01:21.647Z,-0.60
2023-01-27T20:03:49.495Z,-0.50
2023-01-27T20:06:26.262Z,-0.50
2023-01-27T20:08:55.425Z,-0.50
2023-01-27T20:11:28.452Z,-0.50
2023-01-27T20:13:56.216Z,-0.60
2023-01-27T20:16:25.198Z,-0.60
2023-01-27T20:18:53.714Z,-0.60
2023-01-27T20:21:21.088Z,-0.60
2023-01-27T20:23:48.264Z,-0.70
2023-01-27T20:26:22.323Z,-0.70
2023-01-27T20:28:50.051Z,-0.70
2023-01-27T20:31:20.226Z,-0.70
2023-01-27T20:33:50.355Z,-0.60
2023-01-27T20:36:24.536Z,-0.70
2023-01-27T20:38:52.094Z,-0.70
2023-01-27T20:41:23.879Z,-0.60
2023-01-27T20:43:58.549Z,-0.60
2023-01-27T20:46:25.546Z,-0.70
2023-01-27T20:48:53.062Z,-0.60
2023-01-27T20:51:20.172Z,-0.70
2023-01-27T20:53:47.949Z,-0.70
2023-01-27T20:56:20.332Z,-0.70
2023-01-27T20:58:48.428Z,-0.60
2023-01-27T21:01:19.343Z,-0.70
2023-01-27T21:03:47.496Z,-0.60
2023-01-27T21:06:22.781Z,-0.60
2023-01-27T21:08:49.815Z,-0.70
2023-01-27T21:11:18.819Z,-0.60
2023-01-27T21:13:46.307Z,-0.60
2023-01-27T21:16:13.935Z,-0.70
2023-01-27T21:18:41.050Z,-0.70
2023-01-27T21:21:08.182Z,-0.70
2023-01-27T21:23:35.376Z,-0.70
2023-01-27T21:26:09.706Z,-0.60
2023-01-27T21:28:36.908Z,-0.60
2023-01-27T21:31:12.229Z,-0.60
2023-01-27T21:33:40.131Z,-0.60
2023-01-27T21:36:10.630Z,-0.70
2023-01-27T21:38:38.410Z,-0.60
2023-01-27T21:41:06.317Z,-0.60
2023-01-27T21:43:51.802Z,-0.60
2023-01-27T21:46:19.596Z,-0.60
2023-01-27T21:48:47.423Z,-0.60
2023-01-27T21:51:14.788Z,-0.60
2023-01-27T21:53:42.153Z,-0.60
2023-01-27T21:56:10.956Z,-0.60
2023-01-27T21:58:38.025Z,-0.60
2023-01-27T22:01:07.246Z,-0.60
2023-01-27T22:03:36.114Z,-0.60
2023-01-27T22:06:10.033Z,-0.60
2023-01-27T22:08:37.699Z,-0.70
2023-01-27T22:11:06.240Z,-0.70
2023-01-27T22:13:34.016Z,-0.60
2023-01-27T22:16:02.024Z,-0.60
2023-01-27T22:18:29.372Z,-0.60
2023-01-27T22:21:00.606Z,-0.60
2023-01-27T22:23:27.607Z,-0.60
2023-01-27T22:25:54.871Z,-0.60
2023-01-27T22:28:23.183Z,-0.60
2023-01-27T22:30:50.834Z,-0.60
2023-01-27T22:33:17.895Z,-0.60
2023-01-27T22:35:44.994Z,-0.60
2023-01-27T22:38:11.943Z,-0.60
2023-01-27T22:40:38.866Z,-0.60
2023-01-27T22:43:09.411Z,-0.60
2023-01-27T22:45:40.049Z,-0.60
2023-01-27T22:48:08.848Z,-0.60
2023-01-27T22:50:36.607Z,-0.50
2023-01-27T22:53:05.536Z,-0.50
2023-01-27T22:55:32.862Z,-0.50
2023-01-27T22:57:59.910Z,-0.50
2023-01-27T23:00:27.119Z,-0.50
2023-01-27T23:02:54.488Z,-0.50
2023-01-27T23:05:21.494Z,-0.50
2023-01-27T23:07:48.510Z,-0.50
2023-01-27T23:10:16.031Z,-0.50
2023-01-27T23:12:43.043Z,-0.50
2023-01-27T23:15:10.956Z,-0.40
2023-01-27T23:17:38.051Z,-0.40
2023-01-27T23:20:05.527Z,-0.40
2023-01-27T23:22:32.886Z,-0.40
2023-01-27T23:24:59.886Z,-0.40
2023-01-27T23:27:28.717Z,-0.40
2023-01-27T23:29:55.789Z,-0.40
2023-01-27T23:32:23.061Z,-0.40
2023-01-27T23:34:50.444Z,-0.40
2023-01-27T23:37:17.870Z,-0.40
2023-01-27T23:39:48.822Z,-0.40
2023-01-27T23:42:17.442Z,-0.40
2023-01-27T23:44:44.792Z,-0.40
2023-01-27T23:47:12.911Z,-0.40
2023-01-27T23:49:40.003Z,-0.40
2023-01-27T23:52:07.296Z,-0.40
2023-01-27T23:54:34.352Z,-0.40
2023-01-27T23:57:01.625Z,-0.40
2023-01-27T23:59:28.652Z,-0.40
